Time;durP1;ratioP1;P1;durP2;ratioP2;P2;SDS_P1;SDS_P2;PMS_P1;PMS_P2;Temp;Humidity;BMP_temperature;BMP_pressure;BME280_temperature;BME280_humidity;BME280_pressure;Samples;Min_cycle;Max_cycle;Signal;HPM_P1;HPM_P2
2021/04/03 00:00:55;;;;;;;70.83;37.95;;;;;;;1.33;78.60;97780.18;1784991;79;21412;-74
2021/04/03 00:03:22;;;;;;;78.78;41.42;;;;;;;1.34;78.93;97779.13;1785479;80;21109;-74
2021/04/03 00:05:50;;;;;;;81.45;40.33;;;;;;;1.30;81.54;97777.97;1757193;80;21495;-74
2021/04/03 00:08:16;;;;;;;80.22;42.50;;;;;;;1.36;80.81;97769.03;1785212;80;21070;-74
2021/04/03 00:11:00;;;;;;;80.62;40.38;;;;;;;1.39;79.83;97771.27;1785181;79;21151;-74
2021/04/03 00:13:29;;;;;;;65.30;35.85;;;;;;;1.42;79.44;97767.33;1785080;80;21047;-73
2021/04/03 00:15:56;;;;;;;;;;;;;;;1.39;79.19;97767.27;1787706;79;21094;-73
2021/04/03 00:18:23;;;;;;;75.60;38.05;;;;;;;1.35;80.10;97763.41;1785083;80;20214;-74
2021/04/03 00:20:49;;;;;;;79.75;42.38;;;;;;;1.38;81.47;97764.30;1785165;79;21067;-74
2021/04/03 00:23:17;;;;;;;82.27;43.17;;;;;;;1.39;82.53;97763.27;1785108;80;21150;-74
2021/04/03 00:25:43;;;;;;;75.12;40.52;;;;;;;1.40;82.00;97764.89;1785127;79;21059;-74
2021/04/03 00:28:09;;;;;;;77.95;40.92;;;;;;;1.38;79.60;97760.30;1785207;80;21102;-74
2021/04/03 00:30:35;;;;;;;84.65;42.20;;;;;;;1.33;80.97;97754.81;1785141;79;21094;-74
2021/04/03 00:33:04;;;;;;;81.37;44.33;;;;;;;1.37;80.55;97754.67;1785137;80;21110;-74
2021/04/03 00:35:33;;;;;;;95.00;46.63;;;;;;;1.43;79.72;97755.59;1785334;79;22082;-74
2021/04/03 00:38:00;;;;;;;;;;;;;;;1.39;79.66;97755.77;1787806;80;21070;-73
2021/04/03 00:40:35;;;;;;;82.80;45.98;;;;;;;1.41;82.12;97761.17;1785238;79;20223;-73
2021/04/03 00:43:08;;;;;;;85.87;42.88;;;;;;;1.49;81.42;97760.56;1785312;80;21079;-73
2021/04/03 00:45:35;;;;;;;92.95;46.08;;;;;;;1.46;81.05;97755.16;1784652;79;21503;-74
2021/04/03 00:48:04;;;;;;;82.37;43.38;;;;;;;1.36;82.12;97757.02;1785278;80;21190;-73
2021/04/03 00:50:34;;;;;;;86.37;42.90;;;;;;;1.34;81.60;97751.63;1785298;79;21503;-73
2021/04/03 00:53:01;;;;;;;94.60;45.50;;;;;;;1.28;80.64;97749.84;1785114;80;21539;-73
2021/04/03 00:55:27;;;;;;;88.12;45.33;;;;;;;1.22;81.31;97745.44;1785303;79;21543;-73
2021/04/03 00:57:54;;;;;;;85.28;43.92;;;;;;;1.23;81.15;97745.73;1756940;80;21067;-73
2021/04/03 01:00:20;;;;;;;81.40;40.95;;;;;;;1.20;80.91;97741.67;1782412;79;21098;-73
2021/04/03 01:02:47;;;;;;;75.65;40.55;;;;;;;1.16;79.47;97738.33;1780798;80;21142;-74
2021/04/03 01:05:23;;;;;;;73.72;40.63;;;;;;;1.07;79.20;97728.48;1780763;79;21028;-73
2021/04/03 01:08:00;;;;;;;95.12;48.70;;;;;;;1.02;79.14;97722.48;1847344;76;22659;-72
2021/04/03 01:10:36;;;;;;;79.70;43.33;;;;;;;0.91;79.94;97727.77;1806330;78;21061;-72
2021/04/03 01:13:24;;;;;;;82.33;41.70;;;;;;;0.93;80.42;97722.50;1785999;80;21196;-73
2021/04/03 01:16:11;;;;;;;79.85;40.67;;;;;;;0.96;81.51;97724.73;1785923;79;21036;-73
2021/04/03 01:19:20;;;;;;;67.35;35.63;;;;;;;0.98;82.36;97725.31;1785988;80;21075;-73
2021/04/03 01:22:08;;;;;;;;;;;;;;;1.00;80.74;97725.09;1788486;79;21054;-73
2021/04/03 01:25:14;;;;;;;88.58;45.52;;;;;;;0.89;83.62;97717.33;1786085;79;20466;-74
2021/04/03 01:28:06;;;;;;;81.85;41.55;;;;;;;0.91;83.16;97717.10;1785811;80;21183;-73
2021/04/03 01:30:32;;;;;;;77.67;40.73;;;;;;;0.96;81.99;97719.40;1783636;79;21086;-73
2021/04/03 01:33:05;;;;;;;78.78;38.08;;;;;;;0.99;81.44;97715.45;1785842;80;21153;-74
2021/04/03 01:35:38;;;;;;;66.20;37.33;;;;;;;0.93;79.92;97713.68;1785919;79;21502;-74
2021/04/03 01:38:11;;;;;;;77.53;38.08;;;;;;;0.89;80.55;97711.19;1764178;80;21075;-74
2021/04/03 01:40:38;;;;;;;79.50;39.67;;;;;;;0.89;80.75;97706.66;1785934;79;22045;-72
2021/04/03 01:43:14;;;;;;;79.25;38.70;;;;;;;0.94;80.56;97709.97;1785908;80;21465;-72
2021/04/03 01:45:41;;;;;;;71.28;37.28;;;;;;;1.01;81.70;97713.38;1785769;79;21118;-73
2021/04/03 01:48:11;;;;;;;74.00;37.23;;;;;;;1.09;82.31;97717.06;1785836;80;21070;-73
2021/04/03 01:50:38;;;;;;;63.05;33.33;;;;;;;1.12;81.59;97717.44;1785846;79;21051;-74
2021/04/03 01:53:04;;;;;;;65.80;37.75;;;;;;;1.15;81.51;97719.35;1785916;80;22054;-74
2021/04/03 01:55:30;;;;;;;68.55;36.53;;;;;;;1.20;82.54;97730.98;1755451;80;21146;-74
2021/04/03 01:57:57;;;;;;;66.47;37.35;;;;;;;1.23;82.33;97730.52;1785817;80;21050;-74
2021/04/03 02:00:26;;;;;;;73.17;39.35;;;;;;;1.23;82.06;97733.20;1785804;79;21092;-74
2021/04/03 02:02:52;;;;;;;74.27;37.08;;;;;;;1.26;80.90;97730.06;1785818;80;21090;-75
2021/04/03 02:05:18;;;;;;;78.52;39.63;;;;;;;1.20;80.28;97717.64;1785808;79;21392;-74
2021/04/03 02:07:45;;;;;;;76.40;40.65;;;;;;;1.16;80.40;97718.31;1785711;78;21090;-74
2021/04/03 02:10:14;;;;;;;74.07;36.03;;;;;;;1.18;82.51;97717.55;1785815;79;21086;-74
2021/04/03 02:12:40;;;;;;;84.20;41.53;;;;;;;1.25;80.88;97716.42;1786043;80;21018;-74
2021/04/03 02:15:09;;;;;;;75.05;37.28;;;;;;;1.26;81.77;97710.04;1785974;79;21643;-75
2021/04/03 02:17:36;;;;;;;;;;;;;;;1.24;83.54;97705.98;1788372;80;21968;-74
2021/04/03 02:20:06;;;;;;;69.20;36.30;;;;;;;1.16;84.21;97703.62;1785317;79;20482;-74
2021/04/03 02:22:33;;;;;;;67.37;34.90;;;;;;;1.20;84.41;97700.78;1785349;79;21091;-74
2021/04/03 02:24:59;;;;;;;66.33;33.23;;;;;;;1.28;82.45;97697.30;1785249;79;21031;-74
2021/04/03 02:27:27;;;;;;;68.75;33.63;;;;;;;1.24;81.34;97701.45;1785296;80;21039;-74
2021/04/03 02:29:54;;;;;;;68.83;35.85;;;;;;;1.12;82.63;97700.61;1756130;79;22134;-74
2021/04/03 02:32:20;;;;;;;65.57;33.65;;;;;;;1.11;82.49;97700.30;1785247;80;21561;-74
2021/04/03 02:34:46;;;;;;;61.30;31.70;;;;;;;1.11;81.57;97694.95;1785325;79;21146;-74
2021/04/03 02:37:12;;;;;;;60.83;31.12;;;;;;;1.05;80.86;97689.21;1785240;80;20983;-74
2021/04/03 02:39:38;;;;;;;69.67;35.40;;;;;;;0.95;80.25;97687.61;1785258;79;21118;-74
2021/04/03 02:42:18;;;;;;;65.37;35.10;;;;;;;0.88;80.52;97689.55;1785337;80;21235;-74
2021/04/03 02:44:52;;;;;;;66.10;35.40;;;;;;;0.89;81.43;97686.66;1785199;79;21071;-73
2021/04/03 02:47:42;;;;;;;59.73;31.97;;;;;;;0.99;81.74;97699.45;1783820;80;21586;-73
2021/04/03 02:50:15;;;;;;;62.80;30.50;;;;;;;1.05;81.40;97699.89;1785239;79;21063;-73
2021/04/03 02:52:42;;;;;;;59.63;31.48;;;;;;;1.04;80.89;97686.25;1771219;80;21087;-74
2021/04/03 02:55:09;;;;;;;69.35;35.90;;;;;;;0.99;80.92;97692.78;1754796;80;21204;-74
2021/04/03 02:57:35;;;;;;;63.70;32.48;;;;;;;0.97;81.57;97693.01;1785157;80;21031;-74
2021/04/03 03:00:06;;;;;;;56.18;29.05;;;;;;;0.96;82.77;97690.05;1713427;80;21038;-74
2021/04/03 03:02:33;;;;;;;67.08;29.77;;;;;;;0.91;81.65;97684.56;1785315;80;21122;-72
2021/04/03 03:04:59;;;;;;;55.83;28.15;;;;;;;0.79;80.54;97685.05;1785240;79;21056;-72
2021/04/03 03:07:26;;;;;;;64.65;34.05;;;;;;;0.69;80.99;97679.44;1792558;79;21236;-72
2021/04/03 03:09:52;;;;;;;66.17;34.15;;;;;;;0.64;83.36;97679.28;1799795;78;21514;-72
2021/04/03 03:12:21;;;;;;;62.40;29.95;;;;;;;0.67;84.05;97684.97;1799795;79;21046;-72
2021/04/03 03:14:47;;;;;;;;;;;;;;;0.70;82.72;97682.39;1802384;78;21061;-74
2021/04/03 03:17:13;;;;;;;63.45;32.48;;;;;;;0.72;82.52;97684.31;1780785;80;20466;-74
2021/04/03 03:19:40;;;;;;;68.95;36.05;;;;;;;0.71;82.82;97687.50;1762288;81;22048;-74
2021/04/03 03:22:07;;;;;;;77.58;37.15;;;;;;;0.71;82.12;97684.84;1780814;80;21062;-74
2021/04/03 03:24:33;;;;;;;72.15;36.17;;;;;;;0.70;83.76;97674.39;1762302;81;21100;-74
2021/04/03 03:27:03;;;;;;;70.40;32.80;;;;;;;0.72;82.94;97677.13;1780757;80;21420;-74
2021/04/03 03:29:30;;;;;;;75.70;37.48;;;;;;;0.74;82.15;97680.38;1762210;81;21092;-74
2021/04/03 03:31:56;;;;;;;75.50;37.40;;;;;;;0.80;82.07;97684.00;1749922;81;21209;-74
2021/04/03 03:34:22;;;;;;;69.15;36.33;;;;;;;0.86;82.55;97681.78;1780735;80;21130;-73
2021/04/03 03:36:49;;;;;;;69.15;33.45;;;;;;;0.90;82.63;97684.80;1780813;79;21393;-73
2021/04/03 03:39:15;;;;;;;73.50;36.40;;;;;;;0.91;81.87;97683.75;1780781;80;21115;-73
2021/04/03 03:41:41;;;;;;;74.47;39.20;;;;;;;0.87;82.69;97679.92;1756670;80;21157;-73
2021/04/03 03:44:08;;;;;;;83.10;36.77;;;;;;;0.83;83.67;97681.69;1780765;80;21275;-73
2021/04/03 03:46:34;;;;;;;77.55;37.73;;;;;;;0.82;84.37;97682.73;1756454;80;21098;-73
2021/04/03 03:49:01;;;;;;;68.12;34.80;;;;;;;0.89;83.46;97680.50;1780889;80;21162;-73
2021/04/03 03:51:28;;;;;;;67.25;35.95;;;;;;;0.91;83.19;97679.23;1780672;79;21039;-73
2021/04/03 03:53:55;;;;;;;70.17;36.65;;;;;;;0.92;83.80;97672.84;1780891;80;21475;-73
2021/04/03 03:56:21;;;;;;;77.20;36.20;;;;;;;0.93;83.18;97671.80;1762157;81;21204;-73
2021/04/03 03:58:47;;;;;;;74.35;36.68;;;;;;;0.88;82.97;97669.55;1749761;81;21149;-73
2021/04/03 04:01:14;;;;;;;78.78;42.23;;;;;;;0.79;83.58;97670.38;1780716;79;21126;-73
2021/04/03 04:03:40;;;;;;;88.55;43.50;;;;;;;0.80;83.37;97664.00;1780739;80;21015;-73
2021/04/03 04:06:06;;;;;;;100.38;49.63;;;;;;;0.83;82.98;97670.20;1731972;81;21028;-73
2021/04/03 04:08:32;;;;;;;94.50;44.27;;;;;;;0.83;82.37;97660.87;1778362;78;21201;-74
2021/04/03 04:10:59;;;;;;;73.45;37.80;;;;;;;0.80;81.50;97659.48;1777928;79;21102;-73
2021/04/03 04:13:25;;;;;;;92.10;40.30;;;;;;;0.79;81.43;97661.04;1777962;80;21051;-73
2021/04/03 04:15:54;;;;;;;67.22;34.75;;;;;;;0.79;81.77;97659.19;1777971;79;21099;-73
2021/04/03 04:18:20;;;;;;;71.62;37.10;;;;;;;0.90;82.83;97663.45;1778003;80;21107;-73
2021/04/03 04:20:46;;;;;;;78.15;35.70;;;;;;;1.00;82.99;97658.38;1777976;79;21420;-73
2021/04/03 04:23:13;;;;;;;64.05;33.25;;;;;;;1.09;83.61;97652.48;1777998;80;21119;-73
2021/04/03 04:25:39;;;;;;;59.23;28.90;;;;;;;1.13;83.24;97650.20;1778044;79;21090;-74
2021/04/03 04:28:05;;;;;;;62.93;32.23;;;;;;;1.21;82.45;97653.06;1777999;80;21048;-73
2021/04/03 04:30:31;;;;;;;69.50;33.38;;;;;;;1.20;82.00;97651.41;1778085;79;21087;-73
2021/04/03 04:32:57;;;;;;;67.85;33.80;;;;;;;1.18;82.56;97650.83;1777959;80;21268;-73
2021/04/03 04:35:23;;;;;;;67.82;35.83;;;;;;;1.23;82.69;97648.30;1778003;79;21440;-73
2021/04/03 04:37:50;;;;;;;78.02;38.95;;;;;;;1.28;82.90;97647.08;1777962;80;21063;-73
2021/04/03 04:40:16;;;;;;;73.62;36.50;;;;;;;1.34;81.37;97651.50;1777936;79;21095;-73
2021/04/03 04:42:42;;;;;;;78.28;37.85;;;;;;;1.26;81.28;97655.32;1777961;80;21075;-73
2021/04/03 04:45:10;;;;;;;73.37;41.23;;;;;;;1.27;81.40;97650.80;1777960;79;21408;-73
2021/04/03 04:47:36;;;;;;;72.60;37.50;;;;;;;1.28;82.41;97656.42;1777845;80;21468;-73
2021/04/03 04:50:04;;;;;;;72.40;37.20;;;;;;;1.32;83.57;97657.61;1778075;79;21451;-74
2021/04/03 04:52:30;;;;;;;78.17;40.65;;;;;;;1.39;83.21;97659.13;1778073;80;21146;-73
2021/04/03 04:54:57;;;;;;;75.03;41.50;;;;;;;1.46;82.98;97659.55;1777978;79;21178;-73
2021/04/03 04:57:23;;;;;;;60.67;35.03;;;;;;;1.50;83.47;97671.39;1778044;80;22077;-74
2021/04/03 04:59:49;;;;;;;73.02;35.92;;;;;;;1.53;82.13;97677.08;1777904;79;21137;-73
2021/04/03 05:02:15;;;;;;;63.42;32.83;;;;;;;1.50;82.09;97674.06;1777913;80;21028;-73
2021/04/03 05:04:41;;;;;;;62.85;35.05;;;;;;;1.51;81.44;97681.84;1778050;79;21118;-73
2021/04/03 05:07:08;;;;;;;66.62;33.50;;;;;;;1.53;82.15;97686.94;1777836;80;21197;-73
2021/04/03 05:09:34;;;;;;;74.55;37.85;;;;;;;1.55;81.76;97686.22;1778001;80;21192;-74
2021/04/03 05:12:01;;;;;;;68.15;36.95;;;;;;;1.51;81.00;97696.52;1777900;80;21176;-74
2021/04/03 05:14:29;;;;;;;82.02;43.17;;;;;;;1.50;81.93;97704.25;1777953;80;21091;-74
2021/04/03 05:16:56;;;;;;;83.97;42.80;;;;;;;1.57;81.29;97711.64;1778097;79;21047;-73
2021/04/03 05:19:22;;;;;;;132.75;60.10;;;;;;;1.65;81.74;97710.50;1778055;80;21516;-73
2021/04/03 05:21:48;;;;;;;96.90;51.00;;;;;;;1.73;81.24;97716.03;1777947;79;21199;-74
2021/04/03 05:24:14;;;;;;;103.32;53.73;;;;;;;1.64;80.99;97711.02;1777867;80;21129;-74
2021/04/03 05:26:40;;;;;;;81.87;41.55;;;;;;;1.62;81.88;97724.29;1777882;79;21146;-73
2021/04/03 05:29:06;;;;;;;92.72;48.02;;;;;;;1.69;82.05;97720.47;1777899;80;21040;-74
2021/04/03 05:31:33;;;;;;;80.95;43.87;;;;;;;1.83;81.75;97729.63;1778040;79;21491;-73
2021/04/03 05:33:59;;;;;;;76.70;41.35;;;;;;;1.92;81.94;97730.39;1777987;80;21273;-73
2021/04/03 05:36:25;;;;;;;84.55;47.10;;;;;;;2.03;81.77;97733.30;1777833;79;21015;-73
2021/04/03 05:38:51;;;;;;;67.50;38.23;;;;;;;2.18;81.63;97726.97;1777920;80;21107;-73
2021/04/03 05:41:17;;;;;;;75.62;41.70;;;;;;;2.24;81.55;97734.07;1777983;79;21072;-73
2021/04/03 05:43:46;;;;;;;76.72;39.95;;;;;;;2.26;81.26;97739.47;1778027;80;21078;-74
2021/04/03 05:46:14;;;;;;;84.05;40.45;;;;;;;2.30;81.20;97737.13;1778023;79;21244;-73
2021/04/03 05:48:40;;;;;;;77.75;38.90;;;;;;;2.37;81.48;97737.02;1753892;80;21535;-74
2021/04/03 05:51:06;;;;;;;87.72;41.85;;;;;;;2.37;80.55;97741.02;1777991;79;21424;-74
2021/04/03 05:53:33;;;;;;;86.25;39.10;;;;;;;2.28;80.97;97744.57;1778087;80;21504;-73
2021/04/03 05:55:59;;;;;;;72.60;36.58;;;;;;;2.30;80.75;97750.49;1729175;80;21055;-74
2021/04/03 05:58:25;;;;;;;87.90;44.03;;;;;;;2.34;80.21;97746.84;1778024;80;22157;-74
2021/04/03 06:00:52;;;;;;;97.27;47.85;;;;;;;2.28;81.58;97754.45;1778017;79;21070;-73
2021/04/03 06:03:19;;;;;;;79.00;41.42;;;;;;;2.34;81.57;97747.66;1778078;80;21052;-73
2021/04/03 06:05:45;;;;;;;98.90;47.90;;;;;;;2.44;81.00;97751.89;1778115;79;21395;-74
2021/04/03 06:08:11;;;;;;;100.40;57.15;;;;;;;2.45;80.55;97757.53;1725349;80;21112;-73
2021/04/03 06:10:38;;;;;;;92.50;45.55;;;;;;;2.46;80.62;97758.34;1785332;79;22085;-73
2021/04/03 06:13:04;;;;;;;113.68;65.90;;;;;;;2.60;80.63;97752.23;1756973;80;21110;-74
2021/04/03 06:15:35;;;;;;;85.80;47.43;;;;;;;2.53;80.95;97753.16;1731884;80;21138;-73
2021/04/03 06:18:10;;;;;;;85.72;45.63;;;;;;;2.62;80.86;97753.61;1785250;80;21150;-74
2021/04/03 06:20:41;;;;;;;87.92;45.28;;;;;;;2.72;80.70;97764.53;1785353;79;21067;-74
2021/04/03 06:23:10;;;;;;;100.07;50.85;;;;;;;2.77;80.41;97763.84;1785217;80;21412;-73
2021/04/03 06:25:54;;;;;;;92.17;48.52;;;;;;;2.80;79.76;97762.83;1785368;79;21471;-74
2021/04/03 06:28:29;;;;;;;94.60;45.92;;;;;;;2.82;80.11;97762.62;1785285;80;21125;-74
2021/04/03 06:31:15;;;;;;;107.78;51.37;;;;;;;2.81;79.70;97765.78;1785212;79;21098;-73
2021/04/03 06:33:42;;;;;;;103.20;52.95;;;;;;;2.89;80.89;97761.94;1784422;80;21082;-74
2021/04/03 06:36:11;;;;;;;84.32;42.48;;;;;;;3.03;80.93;97764.64;1785303;79;21248;-74
2021/04/03 06:38:39;;;;;;;123.97;65.03;;;;;;;3.18;81.16;97754.77;1785140;80;21090;-74
2021/04/03 06:41:23;;;;;;;180.15;91.22;;;;;;;3.30;80.95;97760.87;1785289;79;21032;-74
2021/04/03 06:44:11;;;;;;;106.17;66.57;;;;;;;3.50;81.05;97764.98;1785227;80;21424;-74
2021/04/03 06:46:41;;;;;;;71.65;41.92;;;;;;;3.61;81.15;97764.94;1785215;79;21107;-73
2021/04/03 06:49:07;;;;;;;63.87;38.00;;;;;;;3.80;80.78;97764.72;1784555;80;21208;-73
2021/04/03 06:51:33;;;;;;;79.70;48.75;;;;;;;3.91;80.80;97761.14;1785221;79;21083;-73
2021/04/03 06:54:01;;;;;;;83.95;50.55;;;;;;;3.94;80.43;97765.51;1785265;80;21555;-73
2021/04/03 06:56:31;;;;;;;105.52;59.03;;;;;;;4.05;80.09;97769.16;1756792;80;21447;-73
2021/04/03 06:59:08;;;;;;;118.02;68.20;;;;;;;4.18;79.73;97764.80;1785218;80;21429;-74
2021/04/03 07:01:55;;;;;;;78.07;45.03;;;;;;;4.24;80.01;97767.04;1785235;79;21376;-73
2021/04/03 07:04:32;;;;;;;144.53;78.97;;;;;;;4.24;79.90;97758.99;1785233;80;21102;-73
2021/04/03 07:06:58;;;;;;;75.62;43.25;;;;;;;4.30;79.60;97762.57;1784200;80;21123;-73
2021/04/03 07:09:25;;;;;;;64.12;37.88;;;;;;;4.39;80.04;97768.62;1781582;80;21027;-73
2021/04/03 07:11:53;;;;;;;51.90;33.28;;;;;;;4.63;79.63;97767.08;1780859;79;21095;-73
2021/04/03 07:14:23;;;;;;;83.62;46.40;;;;;;;4.68;78.93;97770.63;1781112;80;22296;-73
2021/04/03 07:16:50;;;;;;;58.02;34.53;;;;;;;4.55;78.89;97778.23;1780689;79;21046;-72
2021/04/03 07:19:18;;;;;;;66.77;35.30;;;;;;;4.49;79.23;97783.52;1780748;80;21035;-72
2021/04/03 07:21:44;;;;;;;74.05;43.13;;;;;;;4.27;79.82;97787.19;1780775;79;21075;-72
2021/04/03 07:24:12;;;;;;;96.10;49.58;;;;;;;4.09;80.02;97787.72;1780768;80;21150;-72
2021/04/03 07:26:45;;;;;;;65.17;37.28;;;;;;;4.00;81.76;97794.54;1780694;79;21134;-72
2021/04/03 07:29:49;;;;;;;66.97;38.15;;;;;;;3.92;81.67;97799.77;1780046;80;21126;-73
2021/04/03 07:32:34;;;;;;;64.07;35.30;;;;;;;3.60;81.70;97802.17;1762153;81;21485;-73
2021/04/03 07:35:16;;;;;;;69.58;39.08;;;;;;;3.53;82.48;97805.52;1756560;80;21054;-73
2021/04/03 07:37:42;;;;;;;69.47;40.17;;;;;;;3.38;83.57;97814.06;1739830;81;21529;-74
2021/04/03 07:40:14;;;;;;;59.83;31.07;;;;;;;3.31;83.61;97816.59;1780728;79;21962;-72
2021/04/03 07:42:41;;;;;;;56.23;32.67;;;;;;;3.27;84.27;97827.50;1762112;81;21560;-72
2021/04/03 07:45:33;;;;;;;55.78;31.07;;;;;;;3.23;83.93;97831.17;1780768;79;21047;-72
2021/04/03 07:47:59;;;;;;;49.30;29.95;;;;;;;3.06;84.75;97829.75;1762228;81;21171;-72
2021/04/03 07:50:48;;;;;;;58.52;31.23;;;;;;;3.06;84.68;97838.30;1749911;82;21026;-72
2021/04/03 07:53:34;;;;;;;53.55;27.80;;;;;;;3.09;84.14;97845.36;1780967;80;21500;-73
2021/04/03 07:56:01;;;;;;;36.55;21.02;;;;;;;3.00;83.94;97856.67;1740075;81;21192;-73
2021/04/03 07:58:32;;;;;;;47.08;26.42;;;;;;;2.74;84.28;97861.45;1774326;80;21086;-73
2021/04/03 08:01:00;;;;;;;43.20;24.90;;;;;;;2.65;84.72;97870.88;1780846;79;21487;-73
2021/04/03 08:03:28;;;;;;;48.05;25.72;;;;;;;2.52;84.75;97863.88;1780856;80;21090;-73
2021/04/03 08:06:03;;;;;;;43.30;23.32;;;;;;;2.40;85.10;97872.43;1780731;79;21263;-73
2021/04/03 08:08:30;;;;;;;43.15;24.98;;;;;;;2.28;85.40;97868.91;1781914;80;21043;-73
2021/04/03 08:11:14;;;;;;;42.70;28.73;;;;;;;2.30;85.69;97872.68;1785145;79;21095;-73
2021/04/03 08:13:42;;;;;;;38.30;23.25;;;;;;;2.42;84.87;97875.68;1785229;80;21126;-73
2021/04/03 08:16:11;;;;;;;43.23;24.92;;;;;;;2.41;85.31;97875.39;1785258;79;26531;-73
2021/04/03 08:18:41;;;;;;;37.03;21.25;;;;;;;2.52;84.80;97875.92;1785395;80;21282;-73
2021/04/03 08:21:07;;;;;;;38.23;20.95;;;;;;;2.52;84.77;97881.27;1784805;79;21040;-73
2021/04/03 08:23:49;;;;;;;33.80;21.48;;;;;;;2.38;84.98;97881.19;1785143;80;21091;-73
2021/04/03 08:26:20;;;;;;;33.35;18.07;;;;;;;2.55;84.22;97877.31;1785131;79;21185;-74
2021/04/03 08:28:46;;;;;;;30.43;19.50;;;;;;;2.56;84.49;97880.27;1785154;80;21011;-73
2021/04/03 08:31:27;;;;;;;30.25;19.27;;;;;;;2.68;83.51;97880.30;1785113;79;21301;-73
2021/04/03 08:33:56;;;;;;;36.08;21.77;;;;;;;2.77;83.75;97881.05;1785100;80;21153;-73
2021/04/03 08:36:25;;;;;;;31.48;20.90;;;;;;;2.89;83.45;97875.69;1784868;79;21095;-73
2021/04/03 08:38:56;;;;;;;31.42;18.48;;;;;;;3.01;83.32;97883.20;1784165;80;21098;-73
2021/04/03 08:41:27;;;;;;;29.80;18.92;;;;;;;3.06;83.87;97882.48;1785141;79;21067;-73
2021/04/03 08:43:54;;;;;;;27.73;18.02;;;;;;;3.18;83.28;97878.47;1785135;80;21103;-72
2021/04/03 08:46:21;;;;;;;28.52;19.15;;;;;;;3.32;82.96;97883.31;1785034;79;21125;-72
2021/04/03 08:48:56;;;;;;;26.97;17.17;;;;;;;3.52;82.69;97879.44;1756698;80;21432;-72
2021/04/03 08:51:23;;;;;;;25.23;18.40;;;;;;;3.71;82.42;97881.41;1785211;79;21488;-73
2021/04/03 08:53:54;;;;;;;53.73;30.75;;;;;;;3.72;82.17;97883.03;1785222;80;21031;-73
2021/04/03 08:56:26;;;;;;;31.07;19.07;;;;;;;3.93;82.02;97883.69;1785133;79;21122;-72
2021/04/03 08:58:53;;;;;;;39.78;24.37;;;;;;;4.01;81.33;97874.45;1785076;80;21109;-73
2021/04/03 09:01:20;;;;;;;32.28;22.25;;;;;;;3.93;82.33;97872.96;1785178;79;21098;-73
2021/04/03 09:03:52;;;;;;;30.65;19.45;;;;;;;4.06;81.98;97874.02;1785080;80;21075;-73
2021/04/03 09:06:37;;;;;;;33.88;19.80;;;;;;;4.32;81.50;97873.13;1784877;79;21108;-73
2021/04/03 09:09:09;;;;;;;26.00;17.80;;;;;;;4.59;80.86;97877.31;1782222;79;21452;-73
2021/04/03 09:11:35;;;;;;;22.22;15.38;;;;;;;4.93;80.11;97874.87;1777860;79;21190;-73
2021/04/03 09:14:01;;;;;;;26.87;16.07;;;;;;;5.14;79.49;97875.99;1729109;80;21130;-73
2021/04/03 09:16:37;;;;;;;21.80;15.48;;;;;;;5.26;79.71;97876.68;1777911;79;21043;-73
2021/04/03 09:19:03;;;;;;;25.35;16.23;;;;;;;5.06;79.65;97878.57;1777746;80;21488;-73
2021/04/03 09:21:30;;;;;;;22.37;15.13;;;;;;;5.16;80.35;97880.58;1777923;79;21182;-73
2021/04/03 09:23:56;;;;;;;26.10;17.07;;;;;;;4.91;79.08;97888.27;1777856;80;21024;-73
2021/04/03 09:26:36;;;;;;;26.42;16.40;;;;;;;4.72;79.41;97892.56;1777912;79;21091;-73
2021/04/03 09:29:10;;;;;;;25.57;18.30;;;;;;;4.54;79.96;97894.16;1778004;80;21102;-73
2021/04/03 09:31:44;;;;;;;31.23;17.85;;;;;;;4.23;80.59;97893.63;1778117;79;21059;-73
2021/04/03 09:34:13;;;;;;;28.23;18.02;;;;;;;4.20;80.65;97897.34;1778090;80;21190;-73
2021/04/03 09:36:47;;;;;;;;;;;;;;;4.13;80.49;97897.48;1756825;80;21593;-73
2021/04/03 09:39:18;;;;;;;34.83;20.43;;;;;;;4.17;81.14;97895.13;1778186;80;20214;-73
2021/04/03 09:41:48;;;;;;;37.13;20.68;;;;;;;4.23;81.05;97899.53;1778120;79;21086;-73
2021/04/03 09:44:15;;;;;;;33.33;20.92;;;;;;;4.16;81.11;97899.67;1778043;80;21087;-73
2021/04/03 09:46:41;;;;;;;77.47;40.35;;;;;;;4.22;80.79;97901.92;1778056;79;21291;-73
2021/04/03 09:49:10;;;;;;;37.10;23.47;;;;;;;4.37;80.71;97903.54;1753713;80;21441;-73
2021/04/03 09:51:37;;;;;;;31.60;19.62;;;;;;;4.55;80.12;97902.49;1778169;79;21507;-72
2021/04/03 09:54:05;;;;;;;27.95;16.85;;;;;;;5.03;79.73;97905.91;1778097;80;21114;-72
2021/04/03 09:56:31;;;;;;;31.75;20.08;;;;;;;5.16;78.45;97895.36;1778114;79;21126;-72
2021/04/03 09:58:59;;;;;;;31.93;21.10;;;;;;;5.18;79.03;97900.47;1778066;80;21271;-72
2021/04/03 10:01:27;;;;;;;38.23;22.52;;;;;;;5.01;79.25;97897.81;1778112;79;21023;-72
2021/04/03 10:03:55;;;;;;;29.05;19.82;;;;;;;4.96;79.67;97902.59;1777824;80;21443;-73
2021/04/03 10:06:22;;;;;;;34.50;19.60;;;;;;;4.84;79.81;97898.37;1778322;79;21095;-73
2021/04/03 10:08:49;;;;;;;37.20;21.02;;;;;;;4.72;80.02;97895.78;1778006;80;21170;-73
2021/04/03 10:11:15;;;;;;;43.63;26.25;;;;;;;4.63;80.76;97899.41;1754000;80;21204;-73
2021/04/03 10:13:44;;;;;;;31.70;20.27;;;;;;;4.56;80.80;97904.64;1778016;80;21143;-73
2021/04/03 10:16:10;;;;;;;37.03;24.63;;;;;;;4.29;81.57;97902.59;1778167;79;21134;-73
2021/04/03 10:18:36;;;;;;;50.92;29.42;;;;;;;4.29;81.91;97908.48;1778049;80;21122;-73
2021/04/03 10:21:03;;;;;;;35.65;22.00;;;;;;;4.21;80.92;97906.48;1778070;79;21071;-73
2021/04/03 10:23:29;;;;;;;31.17;18.20;;;;;;;3.80;81.12;97909.45;1778065;80;21083;-73
2021/04/03 10:25:55;;;;;;;28.00;17.20;;;;;;;3.67;81.43;97909.19;1778086;79;21114;-73
2021/04/03 10:28:21;;;;;;;29.72;20.15;;;;;;;3.57;80.99;97910.33;1778139;80;21154;-73
2021/04/03 10:30:48;;;;;;;35.17;22.37;;;;;;;3.58;81.08;97911.43;1778001;79;21040;-73
2021/04/03 10:33:14;;;;;;;53.80;27.15;;;;;;;3.72;81.25;97919.21;1778164;80;21126;-73
2021/04/03 10:35:40;;;;;;;42.73;27.62;;;;;;;4.02;80.21;97919.81;1777995;79;21249;-73
2021/04/03 10:38:06;;;;;;;46.60;28.20;;;;;;;4.08;80.78;97927.41;1778057;80;21444;-73
2021/04/03 10:40:32;;;;;;;63.10;36.60;;;;;;;4.16;80.29;97929.17;1778090;79;21492;-73
2021/04/03 10:42:58;;;;;;;40.98;24.87;;;;;;;4.10;80.67;97936.86;1778100;80;21075;-73
2021/04/03 10:45:24;;;;;;;38.78;21.23;;;;;;;4.19;80.16;97939.97;1778030;79;21083;-73
2021/04/03 10:47:51;;;;;;;44.18;24.10;;;;;;;4.34;79.71;97929.48;1778149;80;22018;-73
2021/04/03 10:50:17;;;;;;;27.55;16.95;;;;;;;4.47;79.63;97935.91;1777903;79;21066;-73
2021/04/03 10:52:43;;;;;;;19.73;11.43;;;;;;;4.62;79.15;97930.52;1778170;80;21090;-73
2021/04/03 10:55:11;;;;;;;17.32;12.15;;;;;;;4.71;78.46;97931.20;1778086;79;21418;-73
2021/04/03 10:57:37;;;;;;;20.97;13.55;;;;;;;4.85;78.15;97932.20;1778070;80;21091;-73
2021/04/03 11:00:04;;;;;;;17.77;9.58;;;;;;;5.13;78.38;97937.49;1778007;79;21188;-73
2021/04/03 11:02:30;;;;;;;12.45;8.38;;;;;;;5.29;74.44;97933.13;1778071;80;21539;-73
2021/04/03 11:04:57;;;;;;;15.90;10.03;;;;;;;5.68;75.60;97937.14;1777973;79;21174;-73
2021/04/03 11:07:23;;;;;;;12.70;8.48;;;;;;;6.00;74.92;97925.19;1777993;80;21138;-73
2021/04/03 11:09:49;;;;;;;17.95;9.23;;;;;;;6.15;74.94;97929.37;1781192;79;21130;-73
2021/04/03 11:12:15;;;;;;;16.37;9.88;;;;;;;6.39;74.12;97929.34;1785286;80;21508;-73
2021/04/03 11:14:42;;;;;;;21.50;12.55;;;;;;;6.68;73.69;97927.20;1785186;79;21500;-73
2021/04/03 11:17:10;;;;;;;39.20;22.62;;;;;;;6.90;73.36;97929.78;1785291;80;21471;-73
2021/04/03 11:19:36;;;;;;;28.87;17.70;;;;;;;6.86;71.06;97931.38;1785210;79;21042;-73
2021/04/03 11:22:03;;;;;;;24.40;13.03;;;;;;;6.77;71.12;97927.55;1785340;80;21126;-73
2021/04/03 11:24:29;;;;;;;17.70;11.12;;;;;;;6.93;72.20;97930.64;1785156;80;21321;-73
2021/04/03 11:26:56;;;;;;;19.73;11.15;;;;;;;6.82;70.51;97929.45;1785120;79;21138;-74
2021/04/03 11:29:22;;;;;;;22.60;14.50;;;;;;;6.92;71.92;97928.17;1785137;80;21047;-73
2021/04/03 11:31:48;;;;;;;21.37;11.45;;;;;;;7.01;72.01;97931.50;1785219;79;21019;-73
2021/04/03 11:34:14;;;;;;;22.02;13.20;;;;;;;7.00;71.14;97929.86;1785205;80;21154;-73
2021/04/03 11:36:40;;;;;;;41.35;24.32;;;;;;;7.05;71.14;97933.13;1785282;79;21506;-73